createdAt,value
2019-03-15T00:02:13.838Z,100.00
2019-03-15T00:04:47.556Z,100.00
2019-03-15T00:07:23.154Z,100.00
2019-03-15T00:09:55.547Z,100.00
2019-03-15T00:12:28.645Z,100.00
2019-03-15T00:15:01.648Z,100.00
2019-03-15T00:17:34.829Z,100.00
2019-03-15T00:20:08.566Z,100.00
2019-03-15T00:22:41.983Z,100.00
2019-03-15T00:25:13.674Z,100.00
2019-03-15T00:27:45.665Z,100.00
2019-03-15T00:30:18.648Z,100.00
2019-03-15T00:32:49.916Z,100.00
2019-03-15T00:35:21.674Z,100.00
2019-03-15T00:37:56.583Z,100.00
2019-03-15T00:40:27.921Z,100.00
2019-03-15T00:43:01.844Z,100.00
2019-03-15T00:45:34.879Z,100.00
2019-03-15T00:48:08.734Z,100.00
2019-03-15T00:50:44.263Z,100.00
2019-03-15T00:53:15.686Z,100.00
2019-03-15T00:55:47.999Z,100.00
2019-03-15T00:58:20.968Z,100.00
2019-03-15T01:00:53.033Z,100.00
2019-03-15T01:03:28.430Z,100.00
2019-03-15T01:06:01.803Z,100.00
2019-03-15T01:08:34.009Z,100.00
2019-03-15T01:11:05.293Z,100.00
2019-03-15T01:13:37.899Z,100.00
2019-03-15T01:16:09.190Z,100.00
2019-03-15T01:18:41.927Z,100.00
2019-03-15T01:21:13.870Z,100.00
2019-03-15T01:23:46.935Z,100.00
2019-03-15T01:26:19.878Z,100.00
2019-03-15T01:28:53.109Z,100.00
2019-03-15T01:31:26.486Z,100.00
2019-03-15T01:33:58.025Z,100.00
2019-03-15T01:36:31.884Z,100.00
2019-03-15T01:39:06.548Z,100.00
2019-03-15T01:41:38.058Z,100.00
2019-03-15T01:44:11.063Z,100.00
2019-03-15T01:46:44.604Z,100.00
2019-03-15T01:49:17.119Z,100.00
2019-03-15T01:51:49.601Z,100.00
2019-03-15T01:54:23.093Z,100.00
2019-03-15T01:56:56.048Z,100.00
2019-03-15T01:59:29.202Z,100.00
2019-03-15T02:02:02.147Z,100.00
2019-03-15T02:04:33.569Z,100.00
2019-03-15T02:07:05.001Z,100.00
2019-03-15T02:09:38.056Z,100.00
2019-03-15T02:12:11.129Z,100.00
2019-03-15T02:14:44.312Z,100.00
2019-03-15T02:17:17.220Z,100.00
2019-03-15T02:19:49.448Z,100.00
2019-03-15T02:22:23.096Z,100.00
2019-03-15T02:24:56.266Z,100.00
2019-03-15T02:27:30.279Z,100.00
2019-03-15T02:30:03.343Z,100.00
2019-03-15T02:32:35.395Z,100.00
2019-03-15T02:35:09.453Z,100.00
2019-03-15T02:37:41.308Z,100.00
2019-03-15T02:40:14.344Z,100.00
2019-03-15T02:42:47.215Z,100.00
2019-03-15T02:45:20.311Z,100.00
2019-03-15T02:47:53.432Z,100.00
2019-03-15T02:50:29.389Z,100.00
2019-03-15T02:53:02.455Z,100.00
2019-03-15T02:55:34.350Z,100.00
2019-03-15T02:58:06.277Z,100.00
2019-03-15T03:00:41.006Z,100.00
2019-03-15T03:03:14.450Z,100.00
2019-03-15T03:05:49.069Z,100.00
2019-03-15T03:08:20.384Z,100.00
2019-03-15T03:10:53.414Z,100.00
2019-03-15T03:13:26.513Z,100.00
2019-03-15T03:15:59.540Z,100.00
2019-03-15T03:18:31.547Z,100.00
2019-03-15T03:21:04.420Z,100.00
2019-03-15T03:23:37.589Z,100.00
2019-03-15T03:26:13.407Z,99.72
2019-03-15T03:28:47.401Z,98.81
2019-03-15T03:31:19.551Z,98.54
2019-03-15T03:33:54.122Z,98.93
2019-03-15T03:36:25.492Z,97.10
2019-03-15T03:38:58.508Z,97.29
2019-03-15T03:41:31.516Z,96.85
2019-03-15T03:44:04.574Z,97.48
2019-03-15T03:46:37.480Z,96.92
2019-03-15T03:49:10.545Z,95.82
2019-03-15T03:51:44.529Z,94.74
2019-03-15T03:54:16.634Z,93.56
2019-03-15T03:56:49.585Z,94.56
2019-03-15T03:59:23.588Z,97.08
2019-03-15T04:01:58.283Z,97.04
2019-03-15T04:04:31.596Z,97.96
2019-03-15T04:07:03.707Z,98.65
2019-03-15T04:09:39.218Z,99.30
2019-03-15T04:12:10.604Z,99.41
2019-03-15T04:14:44.576Z,99.77
2019-03-15T04:17:18.789Z,100.00
2019-03-15T04:19:50.542Z,100.00
2019-03-15T04:22:23.158Z,98.74
2019-03-15T04:24:55.668Z,98.37
2019-03-15T04:27:28.635Z,96.85
2019-03-15T04:30:03.402Z,95.40
2019-03-15T04:32:35.645Z,93.28
2019-03-15T04:35:07.948Z,93.56
2019-03-15T04:37:41.825Z,93.70
2019-03-15T04:40:13.852Z,91.85
2019-03-15T04:42:46.791Z,90.92
2019-03-15T04:45:19.854Z,90.92
2019-03-15T04:47:52.812Z,90.82
2019-03-15T04:50:24.809Z,90.09
2019-03-15T04:52:58.754Z,89.64
2019-03-15T04:55:30.769Z,89.48
2019-03-15T04:58:04.567Z,90.28
2019-03-15T05:00:35.893Z,90.29
2019-03-15T05:03:07.949Z,90.10
2019-03-15T05:05:40.893Z,89.58
2019-03-15T05:08:12.129Z,89.65
2019-03-15T05:10:44.819Z,89.47
2019-03-15T05:13:16.979Z,89.34
2019-03-15T05:15:48.936Z,87.98
2019-03-15T05:18:22.958Z,86.84
2019-03-15T05:20:55.923Z,87.95
2019-03-15T05:23:28.941Z,88.05
2019-03-15T05:26:01.953Z,89.13
2019-03-15T05:28:34.937Z,89.39
2019-03-15T05:31:07.955Z,88.96
2019-03-15T05:33:41.120Z,88.77
2019-03-15T05:36:12.537Z,88.30
2019-03-15T05:38:44.060Z,87.90
2019-03-15T05:41:17.065Z,87.99
2019-03-15T05:43:52.937Z,87.55
2019-03-15T05:46:23.111Z,88.79
2019-03-15T05:48:56.410Z,88.18
2019-03-15T05:51:29.123Z,88.35
2019-03-15T05:54:02.018Z,88.55
2019-03-15T05:56:35.097Z,88.82
2019-03-15T05:59:09.865Z,89.08
2019-03-15T06:01:42.605Z,88.88
2019-03-15T06:04:14.071Z,88.81
2019-03-15T06:06:47.151Z,88.49
2019-03-15T06:09:20.266Z,88.54
2019-03-15T06:11:53.229Z,88.33
2019-03-15T06:14:26.220Z,89.58
2019-03-15T06:16:59.105Z,89.65
2019-03-15T06:19:32.198Z,89.95
2019-03-15T06:22:05.273Z,89.87
2019-03-15T06:24:38.270Z,89.64
2019-03-15T06:27:10.353Z,89.96
2019-03-15T06:29:41.635Z,90.11
2019-03-15T06:32:14.266Z,90.01
2019-03-15T06:34:48.492Z,90.94
2019-03-15T06:37:22.028Z,91.63
2019-03-15T06:39:53.385Z,91.16
2019-03-15T06:42:26.380Z,90.63
2019-03-15T06:44:59.289Z,89.99
2019-03-15T06:47:32.448Z,90.12
2019-03-15T06:50:06.092Z,90.87
2019-03-15T06:52:39.495Z,90.69
2019-03-15T06:55:12.815Z,90.36
2019-03-15T06:57:44.511Z,90.47
2019-03-15T07:00:17.720Z,88.58
2019-03-15T07:02:50.049Z,87.55
2019-03-15T07:05:23.375Z,86.56
2019-03-15T07:07:56.483Z,86.27
2019-03-15T07:10:28.373Z,84.93
2019-03-15T07:13:02.480Z,85.12
2019-03-15T07:15:38.082Z,84.04
2019-03-15T07:18:13.299Z,83.75
2019-03-15T07:20:46.667Z,85.00
2019-03-15T07:23:22.179Z,84.77
2019-03-15T07:25:53.563Z,84.74
2019-03-15T07:28:27.616Z,85.69
2019-03-15T07:30:59.713Z,84.42
2019-03-15T07:33:32.626Z,86.08
2019-03-15T07:36:03.896Z,85.83
2019-03-15T07:38:35.597Z,84.42
2019-03-15T07:41:08.822Z,84.32
2019-03-15T07:43:41.685Z,85.08
2019-03-15T07:46:13.646Z,84.95
2019-03-15T07:48:49.194Z,84.22
2019-03-15T07:51:21.194Z,83.63
2019-03-15T07:53:53.723Z,84.15
2019-03-15T07:56:29.251Z,85.25
2019-03-15T07:59:03.119Z,85.64
2019-03-15T08:01:36.906Z,85.34
2019-03-15T08:04:16.788Z,85.53
2019-03-15T08:06:41.778Z,85.50
2019-03-15T08:09:14.703Z,84.06
2019-03-15T08:11:47.711Z,83.78
2019-03-15T08:14:21.217Z,83.44
2019-03-15T08:16:53.780Z,83.22
2019-03-15T08:19:25.871Z,82.32
2019-03-15T08:21:57.198Z,82.69
2019-03-15T08:24:31.778Z,82.60
2019-03-15T08:27:07.472Z,83.37
2019-03-15T08:29:39.741Z,83.78
2019-03-15T08:32:11.983Z,83.30
2019-03-15T08:34:46.299Z,84.47
2019-03-15T08:37:18.983Z,85.78
2019-03-15T08:39:50.416Z,86.20
2019-03-15T08:42:23.863Z,86.19
2019-03-15T08:44:56.853Z,87.01
2019-03-15T08:47:28.911Z,86.84
2019-03-15T08:50:02.927Z,87.73
2019-03-15T08:52:37.211Z,87.76
2019-03-15T08:55:10.418Z,88.08
2019-03-15T08:57:44.185Z,88.85
2019-03-15T09:00:15.941Z,89.87
2019-03-15T09:02:48.037Z,90.22
2019-03-15T09:05:20.011Z,90.15
2019-03-15T09:07:55.554Z,90.23
2019-03-15T09:10:27.036Z,90.69
2019-03-15T09:12:59.191Z,91.50
2019-03-15T09:15:32.004Z,90.23
2019-03-15T09:18:03.359Z,90.01
2019-03-15T09:20:34.991Z,90.02
2019-03-15T09:23:08.353Z,90.82
2019-03-15T09:25:41.067Z,90.79
2019-03-15T09:28:15.104Z,91.39
2019-03-15T09:30:48.045Z,90.35
2019-03-15T09:33:19.276Z,89.92
2019-03-15T09:35:50.580Z,90.89
2019-03-15T09:38:23.127Z,89.42
2019-03-15T09:40:55.065Z,85.14
2019-03-15T09:43:29.214Z,84.96
2019-03-15T09:46:02.105Z,84.73
2019-03-15T09:48:34.349Z,85.02
2019-03-15T09:51:08.430Z,84.45
2019-03-15T09:53:41.163Z,83.81
2019-03-15T09:56:15.088Z,79.53
2019-03-15T09:58:48.629Z,78.27
2019-03-15T10:01:34.418Z,78.01
2019-03-15T10:03:53.239Z,77.91
2019-03-15T10:06:26.170Z,77.25
2019-03-15T10:08:59.565Z,76.65
2019-03-15T10:11:31.324Z,74.74
2019-03-15T10:14:06.991Z,74.54
2019-03-15T10:16:41.308Z,73.72
2019-03-15T10:19:15.342Z,72.73
2019-03-15T10:21:48.598Z,72.55
2019-03-15T10:24:21.295Z,72.43
2019-03-15T10:26:54.480Z,70.22
2019-03-15T10:29:26.634Z,70.59
2019-03-15T10:31:59.457Z,71.60
2019-03-15T10:34:35.731Z,70.78
2019-03-15T10:37:08.436Z,69.29
2019-03-15T10:39:41.385Z,71.21
2019-03-15T10:42:14.610Z,70.36
2019-03-15T10:44:46.525Z,70.75
2019-03-15T10:47:20.577Z,70.00
2019-03-15T10:49:53.534Z,70.83
2019-03-15T10:52:27.487Z,70.87
2019-03-15T10:54:59.518Z,71.70
2019-03-15T10:57:31.196Z,70.72
2019-03-15T11:00:02.665Z,73.44
2019-03-15T11:02:35.675Z,73.44
2019-03-15T11:05:09.211Z,73.17
2019-03-15T11:07:41.457Z,74.60
2019-03-15T11:10:14.905Z,75.67
2019-03-15T11:12:46.479Z,77.36
2019-03-15T11:15:18.588Z,77.05
2019-03-15T11:17:50.304Z,78.56
2019-03-15T11:20:21.710Z,79.57
2019-03-15T11:22:53.624Z,81.05
2019-03-15T11:25:24.953Z,84.70
2019-03-15T11:27:56.622Z,86.11
2019-03-15T11:30:28.565Z,86.57
2019-03-15T11:33:01.514Z,88.23
2019-03-15T11:35:33.124Z,89.24
2019-03-15T11:38:07.305Z,90.37
2019-03-15T11:40:40.724Z,91.12
2019-03-15T11:43:14.748Z,91.94
2019-03-15T11:45:47.924Z,92.12
2019-03-15T11:48:20.663Z,91.95
2019-03-15T11:50:53.612Z,92.50
2019-03-15T11:53:26.710Z,93.07
2019-03-15T11:55:59.810Z,93.47
2019-03-15T11:58:32.699Z,94.51
2019-03-15T12:01:06.765Z,95.26
2019-03-15T12:03:52.504Z,94.93
2019-03-15T12:06:16.328Z,96.11
2019-03-15T12:08:47.734Z,96.28
2019-03-15T12:11:20.910Z,96.25
2019-03-15T12:13:53.769Z,96.15
2019-03-15T12:16:27.161Z,96.06
2019-03-15T12:19:10.009Z,96.18
2019-03-15T12:22:05.395Z,96.30
2019-03-15T12:24:35.651Z,96.71
2019-03-15T12:27:17.540Z,96.54
2019-03-15T12:29:59.524Z,96.60
2019-03-15T12:32:43.210Z,96.38
2019-03-15T12:35:25.333Z,96.43
2019-03-15T12:38:06.427Z,95.60
2019-03-15T12:40:46.968Z,94.92
2019-03-15T12:43:25.582Z,95.92
2019-03-15T12:45:56.870Z,95.62
2019-03-15T12:48:29.945Z,95.80
2019-03-15T12:51:03.214Z,94.27
2019-03-15T12:53:37.987Z,93.98
2019-03-15T12:56:11.412Z,91.93
2019-03-15T12:58:43.056Z,91.31
2019-03-15T13:01:17.080Z,91.54
2019-03-15T13:03:50.537Z,93.32
2019-03-15T13:06:24.134Z,92.50
2019-03-15T13:08:57.187Z,91.06
2019-03-15T13:11:30.038Z,91.49
2019-03-15T13:14:03.265Z,92.81
2019-03-15T13:16:38.135Z,91.54
2019-03-15T13:19:13.100Z,92.68
2019-03-15T13:21:46.139Z,92.41
2019-03-15T13:24:18.121Z,92.53
2019-03-15T13:26:50.750Z,93.82
2019-03-15T13:29:24.627Z,93.39
2019-03-15T13:31:57.352Z,93.92
2019-03-15T13:34:31.299Z,91.90
2019-03-15T13:37:05.275Z,92.61
2019-03-15T13:39:39.705Z,91.85
2019-03-15T13:42:12.252Z,91.25
2019-03-15T13:44:45.413Z,91.36
2019-03-15T13:47:18.356Z,91.78
2019-03-15T13:50:10.056Z,91.92
2019-03-15T13:52:42.303Z,92.90
2019-03-15T13:55:15.604Z,92.47
2019-03-15T13:57:48.782Z,90.79
2019-03-15T14:00:21.253Z,91.00
2019-03-15T14:02:54.337Z,91.06
2019-03-15T14:05:28.389Z,91.40
2019-03-15T14:08:11.223Z,90.08
2019-03-15T14:10:48.323Z,90.07
2019-03-15T14:13:12.025Z,91.36
2019-03-15T14:15:44.384Z,91.92
2019-03-15T14:18:21.317Z,90.69
2019-03-15T14:20:51.398Z,92.12
2019-03-15T14:23:24.275Z,92.62
2019-03-15T14:25:57.366Z,93.27
2019-03-15T14:28:30.356Z,93.31
2019-03-15T14:31:03.549Z,94.54
2019-03-15T14:33:38.121Z,93.36
2019-03-15T14:36:10.206Z,94.75
2019-03-15T14:38:42.624Z,94.37
2019-03-15T14:41:14.188Z,94.73
2019-03-15T14:43:48.690Z,95.12
2019-03-15T14:46:21.574Z,96.07
2019-03-15T14:48:53.916Z,94.58
2019-03-15T14:51:25.499Z,94.62
2019-03-15T14:53:57.679Z,95.21
2019-03-15T14:56:31.580Z,96.53
2019-03-15T14:59:04.734Z,97.46
2019-03-15T15:01:37.545Z,97.92
2019-03-15T15:04:09.748Z,98.17
2019-03-15T15:06:41.079Z,98.36
2019-03-15T15:09:14.872Z,98.79
2019-03-15T15:11:49.347Z,99.46
2019-03-15T15:14:22.174Z,99.46
2019-03-15T15:16:55.623Z,99.10
2019-03-15T15:19:29.670Z,99.61
2019-03-15T15:22:02.797Z,100.00
2019-03-15T15:24:35.760Z,100.00
2019-03-15T15:27:08.885Z,100.00
2019-03-15T15:29:43.402Z,100.00
2019-03-15T15:32:17.690Z,100.00
2019-03-15T15:34:49.921Z,100.00
2019-03-15T15:37:25.142Z,100.00
2019-03-15T15:39:59.973Z,100.00
2019-03-15T15:42:30.738Z,100.00
2019-03-15T15:45:02.958Z,100.00
2019-03-15T15:47:37.830Z,100.00
2019-03-15T15:50:12.996Z,100.00
2019-03-15T15:52:46.057Z,100.00
2019-03-15T15:55:17.869Z,100.00
2019-03-15T15:57:50.912Z,100.00
2019-03-15T16:00:24.014Z,100.00
2019-03-15T16:02:55.359Z,100.00
2019-03-15T16:05:28.029Z,100.00
2019-03-15T16:07:59.895Z,100.00
2019-03-15T16:10:35.612Z,100.00
2019-03-15T16:13:17.263Z,100.00
2019-03-15T16:15:45.062Z,100.00
2019-03-15T16:18:17.567Z,100.00
2019-03-15T16:20:51.216Z,100.00
2019-03-15T16:23:25.025Z,100.00
2019-03-15T16:25:57.100Z,100.00
2019-03-15T16:28:34.569Z,100.00
2019-03-15T16:31:06.144Z,100.00
2019-03-15T16:33:37.939Z,100.00
2019-03-15T16:36:12.190Z,100.00
2019-03-15T16:38:46.229Z,100.00
2019-03-15T16:41:18.264Z,100.00
2019-03-15T16:43:51.387Z,100.00
2019-03-15T16:46:22.770Z,100.00
2019-03-15T16:48:54.140Z,100.00
2019-03-15T16:51:27.138Z,100.00
2019-03-15T16:54:01.889Z,100.00
2019-03-15T16:56:33.553Z,100.00
2019-03-15T16:59:06.320Z,100.00
2019-03-15T17:01:39.274Z,100.00
2019-03-15T17:04:12.501Z,100.00
2019-03-15T17:06:46.847Z,100.00
2019-03-15T17:09:18.273Z,100.00
2019-03-15T17:11:51.027Z,100.00
2019-03-15T17:14:26.068Z,100.00
2019-03-15T17:17:00.300Z,100.00
2019-03-15T17:19:33.200Z,100.00
2019-03-15T17:22:07.759Z,100.00
2019-03-15T17:24:41.334Z,100.00
2019-03-15T17:27:15.214Z,100.00
2019-03-15T17:29:48.251Z,100.00
2019-03-15T17:32:21.743Z,100.00
2019-03-15T17:34:54.346Z,100.00
2019-03-15T17:37:26.437Z,100.00
2019-03-15T17:40:00.415Z,100.00
2019-03-15T17:42:33.439Z,100.00
2019-03-15T17:45:06.914Z,100.00
2019-03-15T17:47:38.319Z,100.00
2019-03-15T17:50:13.472Z,100.00
2019-03-15T17:52:45.505Z,100.00
2019-03-15T17:55:17.290Z,100.00
2019-03-15T17:57:51.241Z,100.00
2019-03-15T18:00:33.656Z,100.00
2019-03-15T18:03:19.924Z,100.00
2019-03-15T18:05:41.262Z,100.00
2019-03-15T18:08:12.844Z,100.00
2019-03-15T18:10:45.636Z,100.00
2019-03-15T18:13:17.506Z,100.00
2019-03-15T18:15:49.839Z,100.00
2019-03-15T18:18:21.479Z,100.00
2019-03-15T18:20:55.481Z,100.00
2019-03-15T18:23:28.675Z,100.00
2019-03-15T18:26:00.529Z,100.00
2019-03-15T18:28:33.745Z,100.00
2019-03-15T18:31:06.740Z,100.00
2019-03-15T18:33:39.721Z,100.00
2019-03-15T18:36:11.530Z,100.00
2019-03-15T18:38:47.347Z,100.00
2019-03-15T18:41:20.949Z,100.00
2019-03-15T18:43:54.725Z,100.00
2019-03-15T18:46:27.570Z,100.00
2019-03-15T18:49:00.947Z,100.00
2019-03-15T18:51:34.676Z,100.00
2019-03-15T18:54:17.058Z,100.00
2019-03-15T18:56:42.765Z,100.00
2019-03-15T18:59:15.834Z,100.00
2019-03-15T19:01:47.852Z,100.00
2019-03-15T19:04:23.788Z,100.00
2019-03-15T19:07:01.446Z,100.00
2019-03-15T19:09:36.809Z,100.00
2019-03-15T19:12:09.238Z,100.00
2019-03-15T19:14:43.119Z,100.00
2019-03-15T19:17:16.822Z,100.00
2019-03-15T19:19:51.189Z,100.00
2019-03-15T19:22:24.950Z,100.00
2019-03-15T19:25:02.800Z,100.00
2019-03-15T19:27:37.152Z,100.00
2019-03-15T19:30:11.800Z,100.00
2019-03-15T19:32:46.551Z,100.00
2019-03-15T19:35:19.084Z,100.00
2019-03-15T19:37:53.757Z,100.00
2019-03-15T19:40:30.063Z,100.00
2019-03-15T19:43:06.573Z,100.00
2019-03-15T19:45:42.932Z,100.00
2019-03-15T19:48:17.199Z,100.00
2019-03-15T19:50:59.662Z,100.00
2019-03-15T19:53:39.017Z,100.00
2019-03-15T19:56:13.178Z,100.00
2019-03-15T19:58:48.940Z,100.00
2019-03-15T20:01:24.373Z,100.00
2019-03-15T20:03:57.610Z,100.00
2019-03-15T20:06:33.550Z,100.00
2019-03-15T20:09:09.397Z,100.00
2019-03-15T20:11:44.194Z,100.00
2019-03-15T20:14:20.038Z,100.00
2019-03-15T20:16:53.889Z,100.00
2019-03-15T20:19:29.832Z,100.00
2019-03-15T20:22:01.553Z,100.00
2019-03-15T20:24:36.480Z,100.00
2019-03-15T20:27:09.117Z,100.00
2019-03-15T20:29:43.276Z,100.00
2019-03-15T20:32:15.441Z,100.00
2019-03-15T20:34:49.343Z,100.00
2019-03-15T20:37:24.278Z,100.00
2019-03-15T20:40:00.671Z,100.00
2019-03-15T20:42:40.127Z,100.00
2019-03-15T20:45:16.338Z,100.00
2019-03-15T20:47:58.747Z,100.00
2019-03-15T20:50:46.097Z,100.00
2019-03-15T20:53:17.752Z,100.00
2019-03-15T20:55:54.921Z,100.00
2019-03-15T20:58:34.359Z,100.00
2019-03-15T21:01:09.069Z,100.00
2019-03-15T21:03:55.549Z,100.00
2019-03-15T21:06:19.100Z,100.00
2019-03-15T21:08:55.435Z,100.00
2019-03-15T21:11:31.376Z,100.00
2019-03-15T21:14:06.229Z,100.00
2019-03-15T21:16:40.018Z,100.00
2019-03-15T21:19:12.494Z,100.00
2019-03-15T21:21:46.424Z,100.00
2019-03-15T21:24:18.909Z,100.00
2019-03-15T21:26:54.179Z,100.00
2019-03-15T21:29:29.470Z,100.00
2019-03-15T21:32:05.623Z,100.00
2019-03-15T21:34:39.613Z,100.00
2019-03-15T21:37:15.810Z,100.00
2019-03-15T21:39:57.653Z,100.00
2019-03-15T21:42:30.599Z,100.00
2019-03-15T21:45:05.776Z,100.00
2019-03-15T21:47:40.430Z,100.00
2019-03-15T21:50:14.953Z,100.00
2019-03-15T21:52:54.063Z,100.00
2019-03-15T21:55:25.780Z,100.00
2019-03-15T21:57:57.913Z,100.00
2019-03-15T22:00:32.415Z,100.00
2019-03-15T22:03:09.052Z,100.00
2019-03-15T22:05:41.086Z,100.00
2019-03-15T22:08:16.392Z,100.00
2019-03-15T22:10:50.406Z,100.00
2019-03-15T22:13:25.522Z,100.00
2019-03-15T22:16:00.296Z,100.00
2019-03-15T22:18:32.724Z,100.00
2019-03-15T22:21:04.282Z,100.00
2019-03-15T22:23:40.077Z,100.00
2019-03-15T22:26:18.040Z,100.00
2019-03-15T22:29:07.509Z,100.00
2019-03-15T22:31:43.382Z,100.00
2019-03-15T22:34:21.138Z,100.00
2019-03-15T22:37:00.657Z,100.00
2019-03-15T22:39:35.423Z,100.00
2019-03-15T22:42:12.398Z,100.00
2019-03-15T22:44:47.496Z,100.00
2019-03-15T22:47:22.545Z,100.00
2019-03-15T22:49:54.987Z,100.00
2019-03-15T22:52:30.260Z,100.00
2019-03-15T22:55:10.384Z,100.00
2019-03-15T22:57:58.926Z,100.00
2019-03-15T23:00:27.513Z,100.00
2019-03-15T23:06:13.124Z,100.00
2019-03-15T23:08:46.405Z,100.00
2019-03-15T23:11:21.655Z,100.00
2019-03-15T23:14:02.640Z,100.00
2019-03-15T23:16:40.183Z,100.00
2019-03-15T23:19:16.064Z,100.00
2019-03-15T23:21:54.299Z,100.00
2019-03-15T23:24:29.224Z,100.00
2019-03-15T23:27:06.541Z,100.00
2019-03-15T23:29:39.740Z,100.00
2019-03-15T23:32:13.205Z,100.00
2019-03-15T23:34:46.216Z,100.00
2019-03-15T23:37:23.050Z,100.00
2019-03-15T23:39:55.045Z,100.00
2019-03-15T23:42:28.042Z,99.52
2019-03-15T23:45:03.711Z,97.36
2019-03-15T23:47:41.938Z,97.07
2019-03-15T23:50:16.546Z,96.48
2019-03-15T23:52:49.131Z,95.16
2019-03-15T23:55:22.076Z,96.12
2019-03-15T23:57:56.747Z,95.40
